Date,TemperatureHighF,TemperatureAvgF,TemperatureLowF,DewpointHighF,DewpointAvgF,DewpointLowF,HumidityHigh,HumidityAvg,HumidityLow,PressureMaxIn,PressureMinIn,WindSpeedMaxMPH,WindSpeedAvgMPH,GustSpeedMaxMPH,PrecipitationSumIn
2013-1-1,38,33,20,28,22,9,72,64,50,29.99,29.81,8,2,19,0.03
2013-1-2,28,18,5,17,12,3,92,76,58,30.16,29.98,4,0,7,0.00
2013-1-3,25,15,6,14,8,0,93,75,59,30.20,30.05,6,1,10,0.00
2013-1-4,36,27,12,25,20,10,94,77,62,30.05,29.90,6,1,12,0.00
2013-1-5,40,28,18,26,21,16,94,76,54,30.27,29.95,16,1,20,0.00
2013-1-6,41,30,22,31,26,21,96,86,65,30.22,29.95,4,0,8,0.00
2013-1-7,38,26,16,30,22,14,97,83,52,30.40,30.03,7,1,14,0.00
2013-1-8,46,27,12,32,22,11,96,85,55,30.42,30.32,6,0,9,0.00
2013-1-9,42,29,17,35,27,15,97,91,70,30.40,30.11,2,0,8,0.01
2013-1-10,44,37,24,34,25,23,93,64,45,30.55,30.17,14,2,19,0.00
2013-1-11,38,31,21,35,28,20,98,91,71,30.54,30.14,2,0,3,0.40
2013-1-12,44,39,35,43,38,35,99,98,96,30.18,30.09,2,0,4,0.08
2013-1-13,46,41,37,46,41,36,100,99,98,30.16,30.01,2,0,4,0.01
2013-1-14,53,45,35,52,41,27,100,87,62,30.30,29.88,9,2,13,0.03
2013-1-15,37,34,31,31,28,26,94,79,66,30.34,30.22,5,1,8,0.04
2013-1-16,34,32,29,32,30,26,98,95,74,30.24,29.83,3,0,5,0.01
2013-1-17,41,33,26,32,28,16,98,82,61,30.10,29.90,7,1,12,0.21
2013-1-18,28,21,12,15,9,2,90,61,39,30.48,30.04,9,2,16,0.00
2013-1-19,43,30,13,31,23,11,95,76,58,30.40,29.90,5,0,9,0.09
2013-1-20,50,38,26,32,25,11,97,63,36,29.99,29.64,10,2,18,0.03
2013-1-21,29,24,15,23,15,9,94,72,47,30.09,29.80,5,0,14,0.00
2013-1-22,20,16,10,16,4,-6,95,59,40,30.16,29.80,11,2,19,0.00
2013-1-23,16,9,0,0,-3,-6,85,59,41,30.21,30.13,10,2,16,0.00
2013-1-24,19,9,-2,2,-2,-5,88,63,37,30.35,30.15,12,3,27,0.00
2013-1-25,21,14,4,15,4,-1,92,67,41,30.39,30.06,7,1,8,0.00
2013-1-26,23,16,7,14,7,2,92,68,47,30.35,30.04,10,2,17,0.00
2013-1-27,31,18,4,12,6,1,90,65,28,30.50,30.34,8,2,15,0.00
2013-1-28,32,25,12,31,22,9,97,88,64,30.50,30.00,2,0,3,0.00
2013-1-29,37,34,30,35,32,29,98,96,90,30.17,29.99,2,0,4,0.21
2013-1-30,55,44,33,55,44,33,100,99,98,30.12,29.41,9,1,17,0.03
2013-1-31,59,44,28,58,33,13,100,69,40,29.70,29.02,25,4,28,1.37
2013-2-1,31,26,18,15,11,5,73,55,37,30.17,29.70,8,2,15,0.00
2013-2-2,29,22,12,19,11,6,91,65,39,30.27,30.07,6,1,12,0.00
2013-2-3,30,21,12,19,16,11,94,81,57,30.07,29.78,6,1,8,0.00
2013-2-4,29,23,14,20,12,6,94,66,41,29.97,29.78,7,1,19,0.00
2013-2-5,29,24,16,24,20,12,92,84,74,30.00,29.92,3,0,5,0.00
2013-2-6,37,30,22,27,20,3,96,71,37,30.34,29.92,7,1,12,0.04
2013-2-7,31,23,14,18,8,3,84,56,36,30.52,30.34,4,1,9,0.00
2013-2-8,31,28,23,30,24,16,96,87,64,30.38,29.62,22,4,26,0.00
2013-2-9,27,23,17,22,13,3,96,68,41,30.29,29.72,16,8,31,0.00
2013-2-10,36,16,-4,11,3,-7,90,60,23,30.46,30.30,7,1,12,0.01
2013-2-11,39,31,15,39,29,11,99,94,83,30.36,29.67,2,0,4,0.39
2013-2-12,43,37,32,36,29,26,99,75,57,29.94,29.69,6,1,17,0.00
2013-2-13,42,32,18,31,25,17,96,77,50,29.93,29.71,4,0,7,0.00
2013-2-14,41,31,20,31,25,19,97,82,51,30.00,29.72,6,0,10,0.02
2013-2-15,50,34,20,36,29,19,98,85,57,30.02,29.91,6,0,9,0.00
2013-2-16,37,32,27,33,25,17,97,76,51,29.97,29.71,9,2,13,0.06
2013-2-17,28,23,15,18,6,1,66,48,32,29.89,29.59,16,6,28,0.00
2013-2-18,32,20,13,13,6,2,84,56,35,30.21,29.90,9,3,16,0.00
2013-2-19,46,31,15,39,27,12,99,86,64,30.22,29.64,4,0,11,0.25
2013-2-20,37,29,22,34,17,10,86,60,49,29.91,29.65,12,3,23,0.00
2013-2-21,32,24,20,17,14,12,73,64,51,30.30,29.90,15,4,21,0.00
2013-2-22,40,28,12,28,21,11,94,75,52,30.41,30.28,5,1,8,0.00
2013-2-23,38,35,32,37,33,28,97,92,83,30.29,29.84,4,0,8,0.10
2013-2-24,42,36,32,37,33,26,97,87,67,29.93,29.72,9,3,15,0.00
2013-2-25,44,35,24,30,27,22,96,74,53,30.25,29.94,7,1,11,0.00
2013-2-26,43,33,21,32,27,20,97,80,54,30.31,30.00,5,1,10,0.12
2013-2-27,44,38,33,43,37,32,99,96,92,29.99,29.53,9,2,15,1.51
2013-2-28,47,37,31,41,35,30,99,93,71,29.62,29.53,2,0,5,0.01
2013-3-1,43,38,33,35,31,28,93,76,57,29.75,29.57,8,3,14,0.00
2013-3-2,38,34,29,28,26,24,83,73,63,29.75,29.67,8,3,13,0.00
2013-3-3,32,29,26,26,22,19,84,75,63,29.72,29.65,10,4,15,0.00
2013-3-4,39,32,26,24,22,19,78,68,54,29.86,29.71,13,4,24,0.00
2013-3-5,45,36,28,31,26,23,83,68,49,30.03,29.86,8,2,15,0.00
2013-3-6,40,37,34,37,32,29,90,81,70,30.01,29.92,16,4,30,0.04
2013-3-7,38,34,32,33,30,27,96,85,71,30.06,29.94,14,5,29,0.02
2013-3-8,38,33,29,34,30,26,97,89,65,30.17,29.97,8,2,12,0.28
2013-3-9,53,37,24,30,25,21,96,66,30,30.34,30.17,9,2,12,0.09
2013-3-10,49,34,18,36,29,17,98,82,55,30.40,30.30,5,0,7,0.00
2013-3-11,52,43,35,44,39,33,97,87,71,30.33,30.11,3,1,9,0.00
2013-3-12,53,48,41,53,48,38,99,97,88,30.11,29.68,12,1,12,1.43
2013-3-13,48,39,28,37,29,24,98,70,42,29.86,29.76,7,2,17,0.00
2013-3-14,34,31,27,30,17,11,91,59,44,29.90,29.82,12,3,20,0.00
2013-3-15,41,33,24,31,19,10,79,58,38,29.94,29.71,8,2,15,0.00
2013-3-16,39,32,26,29,24,17,91,71,43,29.90,29.74,6,1,10,0.00
2013-3-17,36,29,19,28,16,8,96,62,31,30.32,29.91,10,2,16,0.00
2013-3-18,36,28,19,28,15,6,93,61,34,30.43,30.10,9,1,9,0.00
2013-3-19,38,33,30,35,31,27,97,93,85,30.07,29.66,6,2,16,0.38
2013-3-20,41,32,25,32,22,18,98,71,42,29.84,29.76,9,2,17,0.04
2013-3-21,36,32,25,27,20,12,91,64,39,29.84,29.62,10,1,10,0.00
2013-3-22,39,30,19,24,19,13,85,65,49,29.83,29.69,7,1,15,0.00
2013-3-23,44,37,31,26,22,18,73,56,36,29.89,29.74,13,3,24,0.00
2013-3-24,44,34,22,28,23,18,90,65,46,29.92,29.72,11,2,17,0.00
2013-3-25,44,38,31,29,27,25,86,65,52,29.74,29.45,8,2,17,0.00
2013-3-26,48,38,26,31,27,23,90,68,42,29.84,29.57,11,2,18,0.00
2013-3-27,53,37,20,29,24,19,96,65,31,29.93,29.82,10,2,20,0.00
2013-3-28,49,40,29,37,31,26,89,72,51,30.08,29.93,9,2,14,0.00
2013-3-29,55,44,32,34,30,28,84,59,37,30.11,30.02,7,2,15,0.00
2013-3-30,55,38,27,33,27,22,95,69,29,30.14,30.05,11,1,14,0.00
2013-3-31,56,41,22,42,31,21,96,70,36,30.14,29.67,7,1,15,0.17
2013-4-1,62,46,35,46,37,14,98,75,39,29.87,29.56,9,2,22,0.04
2013-4-2,41,33,23,20,15,11,85,50,30,30.03,29.87,15,3,24,0.00
2013-4-3,44,36,27,17,15,12,64,44,28,30.27,30.03,13,3,18,0.00
2013-4-4,55,39,20,31,22,14,86,53,27,30.37,30.09,5,1,10,0.00
2013-4-5,61,45,34,32,27,19,87,55,21,30.08,29.69,8,2,17,0.00
2013-4-6,48,37,27,24,15,5,75,43,18,30.32,29.96,10,3,18,0.00
2013-4-7,55,43,26,43,34,20,95,71,47,30.31,30.02,8,2,20,0.00
2013-4-8,68,54,34,45,40,34,99,65,34,30.08,29.98,6,1,11,0.00
2013-4-9,77,62,47,55,46,43,98,63,31,30.01,29.89,15,2,21,0.01
2013-4-10,70,57,48,55,51,44,98,80,59,29.94,29.81,7,1,14,0.31
2013-4-11,57,52,46,53,48,38,99,85,64,30.07,29.79,5,2,10,0.01
2013-4-12,46,40,37,39,36,28,95,85,55,30.07,29.75,10,2,14,0.41
2013-4-13,55,44,35,41,37,34,95,76,48,29.95,29.75,6,1,12,0.09
2013-4-14,53,44,34,40,32,26,97,67,38,30.22,29.94,8,2,18,0.00
2013-4-15,58,43,30,35,32,28,94,68,37,30.39,30.22,6,0,8,0.00
2013-4-16,65,50,33,53,45,31,95,84,59,30.39,30.11,7,1,16,0.03
2013-4-17,65,55,43,53,40,32,97,62,29,30.29,30.11,11,2,17,0.02
2013-4-18,61,49,35,48,39,34,98,72,40,30.36,30.13,13,2,14,0.00
2013-4-19,72,60,51,64,58,48,99,92,74,30.12,29.65,9,2,17,0.00
2013-4-20,62,51,41,61,38,26,97,65,33,30.27,29.64,12,3,17,0.31
2013-4-21,53,41,33,31,23,18,85,51,27,30.63,30.29,8,3,18,0.00
2013-4-22,57,43,30,37,32,25,97,69,33,30.70,30.53,8,1,12,0.00
2013-4-23,46,42,36,40,36,30,87,81,76,30.52,30.11,10,3,15,0.00
2013-4-24,73,54,42,50,45,39,93,75,41,30.10,29.83,6,2,10,0.00
2013-4-25,62,52,36,51,35,25,97,59,25,30.26,29.85,8,2,17,0.00
2013-4-26,64,49,29,37,32,28,97,57,29,30.41,30.26,8,1,12,0.00
2013-4-27,68,52,30,41,33,27,94,55,22,30.42,30.27,8,1,9,0.00
2013-4-28,69,53,35,45,39,32,98,63,34,30.31,30.20,7,1,10,0.00
2013-4-29,59,53,46,48,43,37,91,70,47,30.25,30.20,7,1,8,0.00
2013-4-30,69,55,38,45,35,20,97,55,17,30.33,30.22,5,1,12,0.00
2013-5-1,70,51,30,46,38,28,97,66,27,30.48,30.33,8,1,11,0.00
2013-5-2,78,57,34,47,41,33,99,63,27,30.45,30.29,5,1,7,0.00
2013-5-3,69,56,43,45,40,34,94,56,32,30.46,30.33,9,1,15,0.00
2013-5-4,71,52,36,47,42,36,99,73,37,30.37,30.22,7,1,13,0.00
2013-5-5,68,48,31,46,39,31,99,74,38,30.30,30.20,5,1,9,0.00
2013-5-6,72,54,36,53,46,35,98,78,48,30.27,30.13,5,1,8,0.00
2013-5-7,77,59,39,59,51,39,99,78,47,30.17,30.08,6,1,8,0.00
2013-5-8,68,60,52,64,59,51,99,96,84,30.12,29.99,4,0,11,0.38
2013-5-9,63,57,50,61,56,50,100,97,90,30.02,29.87,2,0,3,0.69
2013-5-10,80,63,48,61,55,47,100,79,42,29.98,29.88,3,0,7,0.01
2013-5-11,65,61,56,63,60,55,99,97,91,29.88,29.68,3,0,8,0.37
2013-5-12,68,58,48,59,47,27,100,71,26,29.87,29.62,11,1,21,0.08
2013-5-13,56,46,33,36,33,27,95,63,37,30.07,29.88,10,2,14,0.00
2013-5-14,59,44,29,37,31,27,99,66,32,30.09,30.00,5,1,10,0.00
2013-5-15,64,48,30,56,43,29,98,84,53,30.07,29.68,4,1,7,0.03
2013-5-16,82,62,42,59,47,41,100,67,25,29.81,29.68,7,1,16,0.01
2013-5-17,70,56,42,49,44,40,99,70,37,30.20,29.81,6,1,14,0.00
2013-5-18,72,54,38,53,46,37,99,78,46,30.30,30.20,4,0,9,0.00
2013-5-19,57,54,47,56,54,46,99,98,96,30.33,30.17,1,0,4,0.14
2013-5-20,81,66,55,70,62,55,100,88,62,30.16,29.93,4,0,7,0.00
2013-5-21,89,72,57,73,66,57,100,83,55,29.96,29.80,6,1,10,0.00
2013-5-22,78,65,56,71,63,55,99,91,76,29.92,29.82,0,0,0,0.26
2013-5-23,71,66,64,69,66,64,100,98,92,29.88,29.75,2,0,8,3.26
2013-5-24,64,56,45,64,55,44,100,97,91,29.88,29.64,7,1,12,0.44
2013-5-25,47,45,43,45,43,41,98,93,84,29.91,29.82,7,2,16,1.01
2013-5-26,61,50,38,45,41,37,96,72,46,30.16,29.85,13,2,28,0.00
2013-5-27,74,53,33,51,41,33,100,70,30,30.21,30.09,5,1,11,0.00
2013-5-28,71,55,40,58,50,39,99,86,45,30.21,30.13,1,0,4,0.16
2013-5-29,80,66,56,72,63,56,100,92,73,30.14,29.98,2,0,6,0.04
2013-5-30,91,74,58,73,66,58,100,80,46,30.09,30.02,5,0,8,0.00
2013-5-31,94,75,59,74,66,59,100,78,37,30.10,29.96,4,0,7,0.00
2013-6-1,91,74,57,73,67,57,100,81,52,29.99,29.87,5,1,8,0.00
2013-6-2,87,74,62,73,68,62,100,84,62,29.89,29.73,5,1,9,0.00
2013-6-3,79,69,60,70,66,52,99,91,66,29.86,29.77,4,0,7,1.12
2013-6-4,73,60,48,53,47,43,97,64,39,30.09,29.87,8,2,17,0.00
2013-6-5,75,59,43,55,49,42,100,75,44,30.20,30.09,4,0,6,0.00
2013-6-6,70,59,45,60,54,45,99,85,61,30.15,30.03,4,0,6,0.16
2013-6-7,61,58,55,60,58,54,99,98,96,30.03,29.68,8,1,16,2.41
2013-6-8,77,64,53,67,59,53,98,85,66,30.03,29.59,6,1,12,0.22
2013-6-9,80,64,50,64,57,50,100,81,48,30.16,30.04,5,1,8,0.00
2013-6-10,73,62,55,67,60,55,100,95,80,30.16,29.88,4,0,8,0.98
2013-6-11,80,66,59,71,63,59,99,91,67,29.87,29.56,5,1,13,0.72
2013-6-12,72,64,52,60,55,51,97,75,52,29.84,29.63,9,2,17,0.00
2013-6-13,59,56,48,58,55,48,99,97,95,29.81,29.55,5,1,17,1.79
2013-6-14,72,58,51,63,55,50,99,89,60,29.84,29.56,5,1,15,0.93
2013-6-15,79,62,48,61,54,48,100,78,39,29.97,29.85,7,1,9,0.00
2013-6-16,78,64,48,68,59,48,100,84,50,29.97,29.73,4,0,9,0.00
2013-6-17,85,69,54,69,62,54,100,81,52,29.90,29.80,6,1,11,0.00
2013-6-18,83,66,56,72,63,55,100,90,66,29.90,29.79,7,1,12,1.18
2013-6-19,74,62,50,59,53,45,99,74,37,30.15,29.88,7,1,13,0.00
2013-6-20,81,63,46,63,55,46,100,79,42,30.25,30.16,5,0,8,0.00
2013-6-21,84,66,50,67,59,50,100,81,53,30.27,30.20,4,0,7,0.00
2013-6-22,85,68,52,67,60,52,100,78,45,30.24,30.11,4,0,7,0.00
2013-6-23,90,73,56,73,66,56,99,81,47,30.17,30.03,4,1,10,0.00
2013-6-24,92,76,65,78,70,63,99,82,53,30.04,29.90,7,1,9,0.10
2013-6-25,91,76,63,76,70,63,100,84,54,29.97,29.75,3,0,8,0.00
2013-6-26,81,74,67,74,71,67,99,89,74,29.82,29.73,3,0,7,0.01
2013-6-27,84,72,65,75,70,65,100,92,74,29.80,29.58,2,0,5,0.46
2013-6-28,84,75,70,76,72,70,99,92,74,29.57,29.45,4,1,7,0.26
2013-6-29,85,73,64,73,69,63,100,88,65,29.69,29.47,3,0,9,0.00
2013-6-30,85,74,69,77,72,69,99,93,73,29.90,29.69,3,0,6,0.01
2013-7-1,76,73,71,74,72,71,99,98,94,30.04,29.89,3,0,5,0.56
2013-7-2,83,75,72,76,73,71,100,93,77,30.15,30.04,4,0,5,0.03
2013-7-3,86,77,69,77,73,69,100,88,71,30.22,30.14,4,0,7,0.00
2013-7-4,90,79,70,78,74,69,100,85,59,30.22,30.11,4,1,8,0.00
2013-7-5,92,79,67,78,73,66,100,83,56,30.18,30.05,4,0,9,0.00
2013-7-6,92,78,68,78,73,68,100,86,58,30.10,29.98,5,1,9,0.00
2013-7-7,94,80,69,80,75,69,100,85,55,30.02,29.89,4,0,7,0.00
2013-7-8,89,77,66,75,71,66,99,84,55,30.00,29.91,5,1,8,0.00
2013-7-9,89,74,65,76,70,65,100,90,60,30.05,29.98,3,0,6,0.23
2013-7-10,86,76,69,80,74,69,100,94,77,30.00,29.77,3,0,6,0.96
2013-7-11,85,74,66,76,71,65,100,92,66,29.91,29.77,2,0,4,0.23
2013-7-12,79,71,64,70,65,60,99,81,68,30.13,29.91,7,1,14,0.01
2013-7-13,78,71,64,75,68,61,99,93,86,30.28,30.13,2,0,7,0.17
2013-7-14,90,80,71,79,75,71,100,87,62,30.30,30.20,5,0,7,0.00
2013-7-15,90,78,68,78,73,68,100,85,56,30.21,30.11,4,1,11,0.00
2013-7-16,91,78,65,76,70,65,100,81,48,30.17,30.10,6,1,10,0.00
2013-7-17,94,79,66,78,72,66,100,82,49,30.18,30.03,2,0,8,0.00
2013-7-18,94,81,70,80,75,69,100,82,53,30.04,29.93,4,0,8,0.00
2013-7-19,96,83,71,80,76,71,100,82,52,29.94,29.74,5,0,12,0.00
2013-7-20,92,80,71,78,75,70,99,85,56,29.82,29.68,6,1,8,0.01
2013-7-21,88,75,67,72,68,63,99,81,46,29.95,29.81,2,0,7,0.02
2013-7-22,83,73,64,76,70,63,99,91,77,29.95,29.80,2,0,5,0.05
2013-7-23,89,76,72,76,74,71,100,92,63,29.80,29.53,8,0,12,1.23
2013-7-24,80,74,64,73,68,55,100,82,63,29.92,29.58,6,1,10,0.00
2013-7-25,65,62,59,59,56,50,95,81,73,30.07,29.92,7,2,11,0.05
2013-7-26,77,65,60,71,63,58,99,93,75,30.03,29.97,5,1,10,0.25
2013-7-27,84,69,58,69,64,58,100,85,55,30.05,29.96,3,0,6,0.00
2013-7-28,80,70,59,72,67,59,99,90,72,29.99,29.92,2,0,6,0.00
2013-7-29,86,73,58,72,67,58,100,85,52,30.06,29.94,7,0,7,0.00
2013-7-30,79,66,53,64,59,53,100,80,53,30.13,30.07,6,1,10,0.00
2013-7-31,82,67,54,68,60,53,100,81,48,30.14,30.03,4,0,5,0.00
2013-8-1,77,65,58,69,64,57,100,96,73,30.04,29.83,3,0,5,0.47
2013-8-2,82,71,61,69,65,61,100,84,52,29.88,29.77,8,1,10,0.24
2013-8-3,79,67,60,69,64,60,100,91,68,29.88,29.80,3,0,6,0.06
2013-8-4,78,64,55,64,59,54,100,84,53,29.94,29.81,6,1,12,0.00
2013-8-5,74,61,50,57,52,48,100,77,39,30.04,29.93,8,1,13,0.00
2013-8-6,79,63,47,64,56,47,100,81,49,30.12,30.04,3,0,6,0.00
2013-8-7,78,66,52,67,61,52,100,86,64,30.16,30.07,3,0,6,0.00
2013-8-8,80,72,68,74,70,67,98,92,81,30.07,30.00,3,0,5,0.00
2013-8-9,82,74,70,78,73,70,100,97,86,30.00,29.77,3,0,7,1.03
2013-8-10,82,71,58,70,65,57,100,84,55,30.03,29.82,6,1,11,0.01
2013-8-11,78,64,49,65,57,49,100,81,49,30.11,30.00,5,0,6,0.00
2013-8-12,83,68,58,69,62,58,100,83,49,30.03,29.91,2,0,3,0.00
2013-8-13,75,68,60,71,66,59,100,94,77,29.92,29.68,3,0,7,0.14
2013-8-14,72,62,51,64,56,51,98,81,52,30.01,29.72,8,1,16,0.00
2013-8-15,76,60,46,59,53,46,100,81,43,30.13,30.02,4,0,9,0.00
2013-8-16,79,62,48,62,56,48,100,82,48,30.20,30.12,3,0,5,0.00
2013-8-17,81,64,50,67,58,50,100,83,46,30.27,30.20,2,0,6,0.00
2013-8-18,78,65,56,68,62,56,100,90,66,30.26,30.12,1,0,4,0.00
2013-8-19,78,68,55,69,64,55,99,86,63,30.11,30.00,4,0,6,0.00
2013-8-20,83,68,55,68,62,55,100,84,50,30.11,30.02,6,0,8,0.00
2013-8-21,86,69,55,70,63,55,100,84,49,30.17,30.03,4,0,7,0.00
2013-8-22,77,66,60,73,66,60,100,97,86,30.05,29.86,1,0,3,0.17
2013-8-23,80,70,57,68,62,57,100,80,49,30.10,29.85,8,1,13,0.00
2013-8-24,78,62,50,59,54,49,98,77,42,30.34,30.11,3,0,8,0.00
2013-8-25,82,63,46,62,54,46,99,77,40,30.38,30.21,2,0,6,0.00
2013-8-26,76,70,63,70,67,63,99,89,72,30.12,29.90,3,0,7,0.17
2013-8-27,82,72,65,73,69,65,100,91,72,29.90,29.79,7,1,9,0.67
2013-8-28,88,72,61,75,68,61,100,88,55,29.89,29.82,3,0,6,0.00
2013-8-29,76,71,66,69,67,65,100,89,70,30.01,29.90,4,0,9,0.01
2013-8-30,83,71,64,72,67,63,99,88,62,30.00,29.84,4,0,7,0.00
2013-8-31,84,76,66,76,73,66,100,90,77,29.84,29.77,2,0,4,0.00
2013-9-1,81,73,69,76,72,69,100,96,84,29.84,29.79,2,0,3,0.04
2013-9-2,80,72,66,77,72,66,100,98,88,29.80,29.68,1,0,4,0.84
2013-9-3,76,67,57,72,66,56,100,96,75,29.86,29.69,5,0,6,0.02
2013-9-4,78,63,52,64,58,51,100,86,52,29.96,29.85,6,1,10,0.00
2013-9-5,72,60,46,63,53,45,100,80,41,30.14,29.89,7,1,11,0.00
2013-9-6,68,53,41,51,45,41,100,80,45,30.25,30.13,4,0,8,0.00
2013-9-7,76,58,40,62,52,40,100,83,42,30.12,29.88,2,0,6,0.00
2013-9-8,76,63,48,66,57,44,100,82,34,30.08,29.80,8,1,14,0.00
2013-9-9,70,55,40,56,48,40,100,82,52,30.24,30.09,3,0,5,0.00
2013-9-10,77,65,53,73,64,53,100,98,89,30.17,30.04,2,0,4,0.47
2013-9-11,93,75,64,82,72,64,100,92,67,30.09,29.96,3,0,5,0.00
2013-9-12,86,73,66,77,71,65,100,93,70,29.96,29.68,3,0,6,1.25
2013-9-13,73,66,56,68,62,51,100,88,69,29.80,29.60,5,1,15,0.04
2013-9-14,64,54,44,53,49,44,98,85,65,30.10,29.80,6,1,12,0.00
2013-9-15,69,52,39,56,47,39,100,85,48,30.20,30.08,4,0,6,0.00
2013-9-16,67,57,48,58,53,45,99,86,63,30.25,30.03,5,1,11,0.01
2013-9-17,62,49,36,47,40,36,98,76,45,30.43,30.25,5,1,13,0.00
2013-9-18,70,52,35,54,45,34,100,80,43,30.36,30.18,6,0,7,0.00
2013-9-19,74,53,37,58,48,37,100,86,48,30.19,30.06,2,0,5,0.00
2013-9-20,77,56,40,63,52,40,100,86,51,30.10,29.99,2,0,4,0.00
2013-9-21,71,62,48,69,60,48,100,95,84,30.02,29.67,4,0,9,0.09
2013-9-22,68,60,48,67,55,43,100,84,61,29.89,29.63,7,1,12,1.12
2013-9-23,60,49,39,46,42,38,98,80,57,30.01,29.88,8,2,13,0.00
2013-9-24,67,50,37,51,43,37,99,81,44,30.04,29.85,10,1,11,0.00
2013-9-25,68,54,37,55,48,37,100,84,56,29.95,29.87,3,0,8,0.00
2013-9-26,68,58,50,57,53,50,100,86,57,30.06,29.96,3,0,10,0.00
2013-9-27,63,53,41,55,50,41,100,89,71,30.27,30.10,6,0,8,0.00
2013-9-28,72,54,41,57,50,41,100,87,53,30.32,30.24,3,0,12,0.00
2013-9-29,69,53,42,59,50,42,100,90,57,30.24,30.08,3,0,7,0.00
2013-9-30,70,53,39,58,49,39,100,88,56,30.09,29.95,2,0,6,0.01
2013-10-1,76,56,40,61,52,40,100,87,56,30.00,29.88,4,0,8,0.00
2013-10-2,78,60,47,66,56,47,100,89,60,30.00,29.88,5,0,9,0.00
2013-10-3,75,58,44,63,54,44,100,87,48,30.12,30.00,6,0,8,0.01
2013-10-4,81,63,52,69,60,52,100,90,65,30.06,29.96,3,0,7,0.00
2013-10-5,76,65,58,67,62,57,98,90,73,30.09,30.01,2,0,4,0.01
2013-10-6,64,62,60,64,61,59,100,98,95,30.13,30.05,3,0,6,0.30
2013-10-7,74,66,54,71,65,54,100,96,87,30.05,29.77,7,1,18,0.28
2013-10-8,64,52,43,54,46,41,100,81,43,30.34,29.94,8,1,12,0.01
2013-10-9,62,49,38,51,44,38,100,86,57,30.43,30.32,5,0,11,0.00
2013-10-10,60,53,43,53,49,43,99,87,78,30.32,30.12,8,1,11,0.00
2013-10-11,69,60,52,60,55,51,98,85,72,30.11,30.04,5,1,14,0.00
2013-10-12,70,58,46,58,52,45,97,81,60,30.32,30.10,10,1,15,0.00
2013-10-13,64,53,44,51,48,43,98,85,65,30.39,30.30,6,1,13,0.00
2013-10-14,65,50,36,52,46,36,100,88,54,30.38,30.24,3,0,5,0.00
2013-10-15,72,54,43,55,47,40,100,82,42,30.26,30.13,4,0,6,0.00
2013-10-16,65,54,42,56,50,41,99,88,68,30.13,29.92,2,0,5,0.00
2013-10-17,74,63,56,63,60,55,99,90,62,29.91,29.68,3,0,6,0.02
2013-10-18,65,57,40,62,50,39,98,78,48,29.95,29.63,12,1,14,0.01
2013-10-19,64,49,34,51,43,33,100,82,47,29.98,29.74,5,0,6,0.02
2013-10-20,60,49,35,52,41,34,99,79,45,30.05,29.72,6,1,13,0.00
2013-10-21,65,46,30,46,38,30,100,79,40,30.14,29.98,3,0,7,0.00
2013-10-22,66,48,35,53,44,35,100,86,55,29.98,29.72,5,0,7,0.00
2013-10-23,52,42,31,40,35,30,99,80,51,29.81,29.60,4,0,9,0.00
2013-10-24,51,39,28,36,31,27,99,76,42,29.95,29.71,9,1,14,0.00
2013-10-25,50,36,26,35,29,25,97,79,50,30.20,29.95,10,1,14,0.00
2013-10-26,53,37,22,37,29,21,98,76,40,30.19,29.89,6,1,15,0.00
2013-10-27,56,44,31,40,34,30,97,72,41,30.09,29.83,6,1,14,0.01
2013-10-28,59,41,25,38,32,24,98,74,41,30.32,30.09,6,1,12,0.00
2013-10-29,50,40,30,32,29,25,93,66,46,30.43,30.33,3,1,8,0.00
2013-10-30,53,42,30,45,37,28,97,84,64,30.35,30.18,3,0,3,0.00
2013-10-31,62,49,32,59,48,31,99,96,90,30.23,29.80,3,0,6,0.11
2013-11-1,67,60,44,63,57,44,99,90,63,29.80,29.51,7,1,12,0.10
2013-11-2,66,49,38,53,44,38,100,86,49,29.76,29.59,2,0,8,0.01
2013-11-3,47,39,27,43,32,19,99,78,52,30.44,29.76,9,2,15,0.00
2013-11-4,42,31,22,23,19,15,89,65,33,30.67,30.44,6,1,13,0.00
2013-11-5,51,38,24,40,32,22,94,81,63,30.68,30.50,3,0,6,0.00
2013-11-6,60,47,32,53,42,31,99,85,62,30.50,30.06,4,1,8,0.00
2013-11-7,63,52,34,58,50,32,97,91,81,30.06,29.72,5,1,16,0.17
2013-11-8,47,37,25,35,30,24,98,80,50,30.16,29.87,7,1,16,0.00
2013-11-9,46,36,24,34,30,23,98,80,52,30.26,30.00,3,0,7,0.00
2013-11-10,58,44,36,42,37,33,96,76,46,29.99,29.76,7,1,20,0.03
2013-11-11,50,43,27,34,31,26,95,63,42,30.16,29.93,4,1,12,0.00
2013-11-12,49,34,26,38,25,17,93,69,54,30.24,29.91,9,3,17,0.06
2013-11-13,35,27,19,18,16,13,89,66,41,30.34,30.23,10,2,14,0.00
2013-11-14,50,34,19,24,20,17,93,64,27,30.23,30.11,6,1,11,0.00
2013-11-15,57,34,20,28,23,18,94,71,28,30.23,30.14,3,0,6,0.00
2013-11-16,58,40,26,39,33,24,98,79,41,30.32,30.23,4,0,7,0.00
2013-11-17,58,51,36,58,50,35,100,98,92,30.28,29.80,4,0,6,0.04
2013-11-18,63,56,46,61,45,28,100,70,42,29.78,29.56,6,1,16,0.21
2013-11-19,47,42,38,31,28,24,62,57,49,30.00,29.72,9,4,18,0.00
2013-11-20,42,29,17,18,15,9,91,61,26,30.62,30.52,4,1,14,0.00
2013-11-21,47,32,14,36,25,13,95,79,51,30.65,30.40,3,0,7,0.00
2013-11-22,51,44,39,49,42,36,99,94,86,30.39,29.86,2,0,6,0.12
2013-11-23,50,39,28,49,28,12,99,67,43,30.01,29.86,8,2,17,0.00
2013-11-24,28,23,20,15,5,-3,62,48,29,30.31,29.92,18,5,32,0.00
2013-11-25,32,22,10,20,12,7,89,67,44,30.45,30.31,4,1,9,0.00
2013-11-26,40,34,30,40,24,15,98,67,48,30.33,29.89,3,0,6,0.26
2013-11-27,61,46,34,61,45,30,100,95,81,29.88,29.30,13,3,18,3.07
2013-11-28,34,27,18,29,17,11,88,66,46,30.47,29.64,9,2,15,0.00
2013-11-29,34,25,17,22,19,15,94,79,56,30.74,30.46,9,1,11,0.00
2013-11-30,32,23,12,24,15,10,94,74,42,30.78,30.40,4,0,5,0.00
2013-12-1,49,36,29,39,31,23,96,83,69,30.39,30.02,2,0,5,0.00
2013-12-2,42,32,25,36,31,25,98,95,82,30.02,29.89,2,0,4,0.00
2013-12-3,48,31,22,39,29,21,98,91,65,30.00,29.87,2,0,6,0.00
2013-12-4,49,34,23,38,31,22,98,90,65,30.16,30.00,2,0,5,0.00
2013-12-5,53,47,37,53,47,35,100,98,92,30.17,29.93,0,0,2,0.03
2013-12-6,53,44,35,53,42,32,100,93,77,30.14,29.87,11,2,12,0.52
2013-12-7,37,32,22,33,28,21,97,86,68,30.50,30.08,9,2,15,0.06
2013-12-8,30,25,16,24,20,14,96,82,67,30.60,30.43,4,0,6,0.00
2013-12-9,34,30,26,34,30,24,99,96,91,30.42,29.94,7,1,8,0.00
2013-12-10,33,27,12,33,26,11,99,96,90,30.07,29.83,2,0,6,0.00
2013-12-11,30,17,8,22,14,6,96,89,68,30.28,30.07,2,0,11,0.00
2013-12-12,24,13,4,14,8,2,95,83,57,30.33,30.13,6,1,11,0.00
2013-12-13,31,21,4,20,13,2,93,72,56,30.35,30.07,6,1,16,0.00
2013-12-14,22,17,14,18,13,11,93,84,65,30.54,29.95,8,2,15,0.00
2013-12-15,32,28,18,30,26,16,97,91,77,29.92,29.50,9,2,18,0.00
2013-12-16,27,19,4,22,11,2,96,72,49,30.22,29.78,8,1,14,0.01
2013-12-17,18,13,0,16,10,-2,93,90,86,30.24,29.94,6,1,10,0.00
2013-12-18,32,22,13,23,18,11,94,84,68,30.13,29.93,7,1,12,0.00
2013-12-19,44,28,12,29,22,10,95,82,49,30.16,29.99,4,0,9,0.15
2013-12-20,50,35,25,36,31,24,97,85,57,30.11,29.95,2,0,4,0.34
2013-12-21,55,39,30,47,37,30,98,91,72,29.99,29.88,2,0,4,0.02
2013-12-22,61,51,37,59,51,37,100,98,88,29.96,29.76,7,0,9,0.00
2013-12-23,56,47,36,56,47,32,100,98,84,30.12,29.89,8,1,13,0.83
2013-12-24,36,31,24,31,22,15,83,70,52,30.28,30.06,9,3,14,0.00
2013-12-25,26,20,16,15,9,5,83,63,48,30.51,30.28,9,2,13,0.00
2013-12-26,31,24,17,27,21,14,96,87,78,30.44,30.14,4,0,7,0.00
2013-12-27,36,24,13,25,19,12,97,83,54,30.33,30.23,4,0,10,0.00
2013-12-28,47,28,17,31,23,15,98,83,48,30.26,30.05,9,0,10,0.00
2013-12-29,40,34,25,40,33,24,98,95,86,30.05,29.43,6,1,11,1.23
2013-12-30,40,28,16,36,23,8,99,82,63,30.19,29.64,9,2,13,0.00
2013-12-31,28,20,11,22,13,8,92,75,58,30.24,30.04,5,0,11,0.00
2014-1-1,28,21,10,20,14,9,93,75,54,30.40,30.24,6,1,12,0.00
2014-1-2,25,18,9,20,15,6,90,86,81,30.29,29.74,11,3,18,0.00